sensor_id;sensor_type;location;lat;lon;timestamp;P1;durP1;ratioP1;P2;durP2;ratioP2
817;SDS011;391;51.052;6.954;2023-05-20T00:01:15;2.20;;;1.30;;
817;SDS011;391;51.052;6.954;2023-05-20T00:03:18;1.90;;;1.60;;
817;SDS011;391;51.052;6.954;2023-05-20T00:05:24;2.47;;;1.60;;
817;SDS011;391;51.052;6.954;2023-05-20T00:07:27;1.73;;;1.63;;
817;SDS011;391;51.052;6.954;2023-05-20T00:09:30;1.50;;;1.37;;
817;SDS011;391;51.052;6.954;2023-05-20T00:11:34;2.53;;;1.90;;
817;SDS011;391;51.052;6.954;2023-05-20T00:13:37;1.60;;;1.37;;
817;SDS011;391;51.052;6.954;2023-05-20T00:15:41;1.40;;;1.30;;
817;SDS011;391;51.052;6.954;2023-05-20T00:17:45;2.53;;;1.67;;
817;SDS011;391;51.052;6.954;2023-05-20T00:19:48;1.77;;;1.43;;
817;SDS011;391;51.052;6.954;2023-05-20T00:21:53;3.73;;;2.27;;
817;SDS011;391;51.052;6.954;2023-05-20T00:23:58;1.70;;;1.57;;
817;SDS011;391;51.052;6.954;2023-05-20T00:26:01;1.70;;;1.50;;
817;SDS011;391;51.052;6.954;2023-05-20T00:28:05;2.60;;;2.07;;
817;SDS011;391;51.052;6.954;2023-05-20T00:30:08;1.70;;;1.60;;
817;SDS011;391;51.052;6.954;2023-05-20T00:32:13;2.23;;;1.63;;
817;SDS011;391;51.052;6.954;2023-05-20T00:34:16;1.77;;;1.57;;
817;SDS011;391;51.052;6.954;2023-05-20T00:36:20;1.83;;;1.63;;
817;SDS011;391;51.052;6.954;2023-05-20T00:38:25;1.77;;;1.67;;
817;SDS011;391;51.052;6.954;2023-05-20T00:40:28;2.03;;;1.77;;
817;SDS011;391;51.052;6.954;2023-05-20T00:42:31;1.97;;;1.83;;
817;SDS011;391;51.052;6.954;2023-05-20T00:44:35;3.17;;;1.90;;
817;SDS011;391;51.052;6.954;2023-05-20T00:46:38;2.40;;;1.33;;
817;SDS011;391;51.052;6.954;2023-05-20T00:48:42;2.77;;;1.50;;
817;SDS011;391;51.052;6.954;2023-05-20T00:50:47;2.23;;;1.20;;
817;SDS011;391;51.052;6.954;2023-05-20T00:52:51;3.70;;;1.70;;
817;SDS011;391;51.052;6.954;2023-05-20T00:54:57;1.43;;;1.33;;
817;SDS011;391;51.052;6.954;2023-05-20T00:57:02;1.40;;;1.30;;
817;SDS011;391;51.052;6.954;2023-05-20T00:59:07;1.50;;;1.40;;
817;SDS011;391;51.052;6.954;2023-05-20T01:01:11;1.70;;;1.60;;
817;SDS011;391;51.052;6.954;2023-05-20T01:03:15;1.83;;;1.60;;
817;SDS011;391;51.052;6.954;2023-05-20T01:05:19;1.40;;;1.30;;
817;SDS011;391;51.052;6.954;2023-05-20T01:07:23;1.40;;;1.30;;
817;SDS011;391;51.052;6.954;2023-05-20T01:09:27;1.30;;;1.07;;
817;SDS011;391;51.052;6.954;2023-05-20T01:11:36;2.60;;;1.77;;
817;SDS011;391;51.052;6.954;2023-05-20T01:13:44;6.30;;;5.50;;
817;SDS011;391;51.052;6.954;2023-05-20T01:15:53;10.40;;;9.30;;
817;SDS011;391;51.052;6.954;2023-05-20T01:17:59;4.90;;;4.50;;
817;SDS011;391;51.052;6.954;2023-05-20T01:20:07;3.33;;;2.80;;
817;SDS011;391;51.052;6.954;2023-05-20T01:22:12;4.00;;;3.13;;
817;SDS011;391;51.052;6.954;2023-05-20T01:24:18;3.20;;;2.13;;
817;SDS011;391;51.052;6.954;2023-05-20T01:26:22;4.53;;;1.80;;
817;SDS011;391;51.052;6.954;2023-05-20T01:28:28;2.03;;;1.83;;
817;SDS011;391;51.052;6.954;2023-05-20T01:30:32;2.37;;;1.83;;
817;SDS011;391;51.052;6.954;2023-05-20T01:32:41;3.00;;;2.17;;
817;SDS011;391;51.052;6.954;2023-05-20T01:34:49;2.23;;;2.03;;
817;SDS011;391;51.052;6.954;2023-05-20T01:36:55;2.80;;;1.87;;
817;SDS011;391;51.052;6.954;2023-05-20T01:38:59;2.10;;;1.90;;
817;SDS011;391;51.052;6.954;2023-05-20T01:41:08;2.50;;;1.53;;
817;SDS011;391;51.052;6.954;2023-05-20T01:43:13;3.43;;;2.10;;
817;SDS011;391;51.052;6.954;2023-05-20T01:45:19;2.77;;;1.60;;
817;SDS011;391;51.052;6.954;2023-05-20T01:47:23;1.50;;;1.40;;
817;SDS011;391;51.052;6.954;2023-05-20T01:49:26;2.67;;;2.20;;
817;SDS011;391;51.052;6.954;2023-05-20T01:51:30;2.60;;;1.93;;
817;SDS011;391;51.052;6.954;2023-05-20T01:53:37;2.93;;;1.97;;
817;SDS011;391;51.052;6.954;2023-05-20T01:55:40;2.57;;;1.90;;
817;SDS011;391;51.052;6.954;2023-05-20T01:57:46;1.90;;;1.70;;
817;SDS011;391;51.052;6.954;2023-05-20T01:59:49;2.77;;;2.00;;
817;SDS011;391;51.052;6.954;2023-05-20T02:01:53;3.20;;;2.30;;
817;SDS011;391;51.052;6.954;2023-05-20T02:03:56;2.80;;;2.50;;
817;SDS011;391;51.052;6.954;2023-05-20T02:06:00;2.30;;;1.90;;
817;SDS011;391;51.052;6.954;2023-05-20T02:08:04;3.70;;;2.20;;
817;SDS011;391;51.052;6.954;2023-05-20T02:10:08;4.10;;;2.90;;
817;SDS011;391;51.052;6.954;2023-05-20T02:12:12;4.00;;;2.57;;
817;SDS011;391;51.052;6.954;2023-05-20T02:14:20;6.90;;;2.47;;
817;SDS011;391;51.052;6.954;2023-05-20T02:16:24;2.43;;;2.03;;
817;SDS011;391;51.052;6.954;2023-05-20T02:18:27;2.50;;;2.30;;
817;SDS011;391;51.052;6.954;2023-05-20T02:20:31;3.30;;;2.27;;
817;SDS011;391;51.052;6.954;2023-05-20T02:22:37;2.33;;;1.90;;
817;SDS011;391;51.052;6.954;2023-05-20T02:24:41;3.83;;;2.40;;
817;SDS011;391;51.052;6.954;2023-05-20T02:26:45;2.17;;;1.90;;
817;SDS011;391;51.052;6.954;2023-05-20T02:28:50;3.70;;;3.17;;
817;SDS011;391;51.052;6.954;2023-05-20T02:30:57;1.97;;;1.77;;
817;SDS011;391;51.052;6.954;2023-05-20T02:33:00;2.80;;;2.03;;
817;SDS011;391;51.052;6.954;2023-05-20T02:35:04;4.20;;;2.87;;
817;SDS011;391;51.052;6.954;2023-05-20T02:37:08;4.20;;;2.47;;
817;SDS011;391;51.052;6.954;2023-05-20T02:39:11;2.30;;;1.80;;
817;SDS011;391;51.052;6.954;2023-05-20T02:41:15;2.90;;;2.10;;
817;SDS011;391;51.052;6.954;2023-05-20T02:43:19;4.60;;;2.43;;
817;SDS011;391;51.052;6.954;2023-05-20T02:45:22;3.10;;;2.43;;
817;SDS011;391;51.052;6.954;2023-05-20T02:47:27;2.57;;;1.70;;
817;SDS011;391;51.052;6.954;2023-05-20T02:49:31;3.90;;;2.17;;
817;SDS011;391;51.052;6.954;2023-05-20T02:51:36;4.43;;;3.40;;
817;SDS011;391;51.052;6.954;2023-05-20T02:53:39;2.93;;;2.63;;
817;SDS011;391;51.052;6.954;2023-05-20T02:55:44;2.77;;;2.57;;
817;SDS011;391;51.052;6.954;2023-05-20T02:57:50;2.63;;;2.43;;
817;SDS011;391;51.052;6.954;2023-05-20T02:59:53;2.83;;;2.40;;
817;SDS011;391;51.052;6.954;2023-05-20T03:01:57;2.50;;;2.10;;
817;SDS011;391;51.052;6.954;2023-05-20T03:04:03;4.83;;;2.50;;
817;SDS011;391;51.052;6.954;2023-05-20T03:06:10;2.57;;;2.07;;
817;SDS011;391;51.052;6.954;2023-05-20T03:08:14;3.40;;;2.60;;
817;SDS011;391;51.052;6.954;2023-05-20T03:10:18;4.13;;;2.20;;
817;SDS011;391;51.052;6.954;2023-05-20T03:12:22;2.20;;;2.00;;
817;SDS011;391;51.052;6.954;2023-05-20T03:14:27;4.10;;;2.80;;
817;SDS011;391;51.052;6.954;2023-05-20T03:16:32;3.13;;;2.00;;
817;SDS011;391;51.052;6.954;2023-05-20T03:18:36;2.77;;;2.23;;
817;SDS011;391;51.052;6.954;2023-05-20T03:20:41;3.77;;;2.20;;
817;SDS011;391;51.052;6.954;2023-05-20T03:22:47;2.37;;;2.17;;
817;SDS011;391;51.052;6.954;2023-05-20T03:24:50;2.67;;;2.30;;
817;SDS011;391;51.052;6.954;2023-05-20T03:26:57;3.37;;;2.40;;
817;SDS011;391;51.052;6.954;2023-05-20T03:29:01;5.93;;;2.97;;
817;SDS011;391;51.052;6.954;2023-05-20T03:31:05;2.43;;;2.23;;
817;SDS011;391;51.052;6.954;2023-05-20T03:33:09;2.17;;;1.73;;
817;SDS011;391;51.052;6.954;2023-05-20T03:35:13;4.23;;;2.60;;
817;SDS011;391;51.052;6.954;2023-05-20T03:37:18;4.10;;;3.70;;
817;SDS011;391;51.052;6.954;2023-05-20T03:39:22;3.60;;;3.30;;
817;SDS011;391;51.052;6.954;2023-05-20T03:41:25;3.20;;;3.00;;
817;SDS011;391;51.052;6.954;2023-05-20T03:43:30;3.27;;;2.80;;
817;SDS011;391;51.052;6.954;2023-05-20T03:45:33;3.30;;;2.90;;
817;SDS011;391;51.052;6.954;2023-05-20T03:47:40;2.70;;;2.50;;
817;SDS011;391;51.052;6.954;2023-05-20T03:49:44;2.50;;;2.30;;
817;SDS011;391;51.052;6.954;2023-05-20T03:51:48;2.47;;;2.27;;
817;SDS011;391;51.052;6.954;2023-05-20T03:53:53;4.27;;;2.77;;
817;SDS011;391;51.052;6.954;2023-05-20T03:55:57;3.33;;;2.80;;
817;SDS011;391;51.052;6.954;2023-05-20T03:58:00;2.70;;;2.47;;
817;SDS011;391;51.052;6.954;2023-05-20T04:00:06;7.60;;;2.47;;
817;SDS011;391;51.052;6.954;2023-05-20T04:02:17;3.47;;;2.50;;
817;SDS011;391;51.052;6.954;2023-05-20T04:04:21;2.93;;;2.73;;
817;SDS011;391;51.052;6.954;2023-05-20T04:06:24;2.70;;;2.50;;
817;SDS011;391;51.052;6.954;2023-05-20T04:08:30;5.83;;;2.60;;
817;SDS011;391;51.052;6.954;2023-05-20T04:10:37;3.40;;;3.20;;
817;SDS011;391;51.052;6.954;2023-05-20T04:12:42;3.50;;;2.50;;
817;SDS011;391;51.052;6.954;2023-05-20T04:14:46;4.23;;;2.70;;
817;SDS011;391;51.052;6.954;2023-05-20T04:16:51;1.90;;;1.70;;
817;SDS011;391;51.052;6.954;2023-05-20T04:18:55;3.23;;;2.40;;
817;SDS011;391;51.052;6.954;2023-05-20T04:21:05;2.53;;;2.20;;
817;SDS011;391;51.052;6.954;2023-05-20T04:23:09;2.27;;;2.00;;
817;SDS011;391;51.052;6.954;2023-05-20T04:25:13;2.97;;;2.60;;
817;SDS011;391;51.052;6.954;2023-05-20T04:27:22;3.90;;;2.73;;
817;SDS011;391;51.052;6.954;2023-05-20T04:29:26;3.93;;;3.10;;
817;SDS011;391;51.052;6.954;2023-05-20T04:31:31;3.20;;;2.73;;
817;SDS011;391;51.052;6.954;2023-05-20T04:33:34;3.60;;;3.17;;
817;SDS011;391;51.052;6.954;2023-05-20T04:35:41;2.57;;;2.37;;
817;SDS011;391;51.052;6.954;2023-05-20T04:37:45;3.40;;;3.10;;
817;SDS011;391;51.052;6.954;2023-05-20T04:39:50;3.57;;;2.83;;
817;SDS011;391;51.052;6.954;2023-05-20T04:41:53;3.67;;;2.93;;
817;SDS011;391;51.052;6.954;2023-05-20T04:43:58;3.33;;;2.53;;
817;SDS011;391;51.052;6.954;2023-05-20T04:46:02;2.63;;;2.43;;
817;SDS011;391;51.052;6.954;2023-05-20T04:48:08;2.20;;;2.00;;
817;SDS011;391;51.052;6.954;2023-05-20T04:50:11;4.20;;;2.67;;
817;SDS011;391;51.052;6.954;2023-05-20T04:52:15;3.27;;;2.97;;
817;SDS011;391;51.052;6.954;2023-05-20T04:54:19;3.60;;;2.73;;
817;SDS011;391;51.052;6.954;2023-05-20T04:56:23;2.63;;;2.43;;
817;SDS011;391;51.052;6.954;2023-05-20T04:58:27;2.53;;;2.33;;
817;SDS011;391;51.052;6.954;2023-05-20T05:00:32;2.53;;;2.30;;
817;SDS011;391;51.052;6.954;2023-05-20T05:02:36;2.93;;;2.27;;
817;SDS011;391;51.052;6.954;2023-05-20T05:04:40;3.57;;;3.27;;
817;SDS011;391;51.052;6.954;2023-05-20T05:06:44;2.90;;;2.60;;
817;SDS011;391;51.052;6.954;2023-05-20T05:08:49;2.83;;;2.53;;
817;SDS011;391;51.052;6.954;2023-05-20T05:10:53;4.90;;;2.53;;
817;SDS011;391;51.052;6.954;2023-05-20T05:12:57;2.43;;;2.23;;
817;SDS011;391;51.052;6.954;2023-05-20T05:15:01;3.20;;;2.90;;
817;SDS011;391;51.052;6.954;2023-05-20T05:17:06;2.63;;;2.10;;
817;SDS011;391;51.052;6.954;2023-05-20T05:19:09;3.40;;;2.50;;
817;SDS011;391;51.052;6.954;2023-05-20T05:21:15;2.43;;;2.23;;
817;SDS011;391;51.052;6.954;2023-05-20T05:23:22;4.00;;;2.40;;
817;SDS011;391;51.052;6.954;2023-05-20T05:25:26;2.57;;;2.37;;
817;SDS011;391;51.052;6.954;2023-05-20T05:27:32;3.20;;;2.17;;
817;SDS011;391;51.052;6.954;2023-05-20T05:29:36;2.27;;;2.07;;
817;SDS011;391;51.052;6.954;2023-05-20T05:31:39;2.33;;;2.13;;
817;SDS011;391;51.052;6.954;2023-05-20T05:33:44;2.60;;;2.40;;
817;SDS011;391;51.052;6.954;2023-05-20T05:35:48;3.00;;;2.40;;
817;SDS011;391;51.052;6.954;2023-05-20T05:37:52;3.13;;;2.73;;
817;SDS011;391;51.052;6.954;2023-05-20T05:39:56;2.53;;;2.33;;
817;SDS011;391;51.052;6.954;2023-05-20T05:42:00;3.30;;;3.00;;
817;SDS011;391;51.052;6.954;2023-05-20T05:44:04;2.60;;;2.03;;
817;SDS011;391;51.052;6.954;2023-05-20T05:46:07;2.73;;;2.53;;
817;SDS011;391;51.052;6.954;2023-05-20T05:48:12;3.03;;;2.73;;
817;SDS011;391;51.052;6.954;2023-05-20T05:50:18;2.57;;;2.37;;
817;SDS011;391;51.052;6.954;2023-05-20T05:52:21;2.30;;;2.10;;
817;SDS011;391;51.052;6.954;2023-05-20T05:54:24;2.77;;;2.30;;
817;SDS011;391;51.052;6.954;2023-05-20T05:56:28;3.43;;;3.13;;
817;SDS011;391;51.052;6.954;2023-05-20T05:58:32;3.83;;;3.53;;
817;SDS011;391;51.052;6.954;2023-05-20T06:00:36;3.20;;;2.83;;
817;SDS011;391;51.052;6.954;2023-05-20T06:02:40;3.30;;;2.73;;
817;SDS011;391;51.052;6.954;2023-05-20T06:04:43;2.80;;;2.60;;
817;SDS011;391;51.052;6.954;2023-05-20T06:06:49;3.13;;;2.83;;
817;SDS011;391;51.052;6.954;2023-05-20T06:08:52;3.53;;;3.00;;
817;SDS011;391;51.052;6.954;2023-05-20T06:10:56;5.53;;;2.77;;
817;SDS011;391;51.052;6.954;2023-05-20T06:13:00;2.93;;;2.47;;
817;SDS011;391;51.052;6.954;2023-05-20T06:15:04;4.63;;;2.43;;
817;SDS011;391;51.052;6.954;2023-05-20T06:17:08;2.67;;;2.47;;
817;SDS011;391;51.052;6.954;2023-05-20T06:19:12;3.03;;;2.33;;
817;SDS011;391;51.052;6.954;2023-05-20T06:21:15;3.40;;;2.97;;
817;SDS011;391;51.052;6.954;2023-05-20T06:23:20;7.17;;;5.47;;
817;SDS011;391;51.052;6.954;2023-05-20T06:25:31;6.10;;;5.50;;
817;SDS011;391;51.052;6.954;2023-05-20T06:27:35;5.60;;;3.40;;
817;SDS011;391;51.052;6.954;2023-05-20T06:29:41;3.13;;;2.83;;
817;SDS011;391;51.052;6.954;2023-05-20T06:31:45;2.90;;;2.40;;
817;SDS011;391;51.052;6.954;2023-05-20T06:33:48;3.20;;;2.60;;
817;SDS011;391;51.052;6.954;2023-05-20T06:35:52;2.70;;;2.50;;
817;SDS011;391;51.052;6.954;2023-05-20T06:37:56;2.60;;;2.40;;
817;SDS011;391;51.052;6.954;2023-05-20T06:40:04;3.10;;;2.90;;
817;SDS011;391;51.052;6.954;2023-05-20T06:42:09;3.33;;;2.60;;
817;SDS011;391;51.052;6.954;2023-05-20T06:44:18;3.70;;;3.13;;
817;SDS011;391;51.052;6.954;2023-05-20T06:46:32;5.90;;;2.77;;
817;SDS011;391;51.052;6.954;2023-05-20T06:48:40;3.03;;;2.73;;
817;SDS011;391;51.052;6.954;2023-05-20T06:50:43;3.10;;;2.83;;
817;SDS011;391;51.052;6.954;2023-05-20T06:52:47;3.20;;;2.90;;
817;SDS011;391;51.052;6.954;2023-05-20T06:54:50;3.27;;;2.97;;
817;SDS011;391;51.052;6.954;2023-05-20T06:56:55;7.93;;;3.40;;
817;SDS011;391;51.052;6.954;2023-05-20T06:58:59;3.57;;;2.80;;
817;SDS011;391;51.052;6.954;2023-05-20T07:01:04;4.70;;;3.50;;
817;SDS011;391;51.052;6.954;2023-05-20T07:03:07;3.40;;;3.10;;
817;SDS011;391;51.052;6.954;2023-05-20T07:05:12;3.70;;;3.37;;
817;SDS011;391;51.052;6.954;2023-05-20T07:07:16;3.50;;;3.20;;
817;SDS011;391;51.052;6.954;2023-05-20T07:09:20;3.53;;;3.23;;
817;SDS011;391;51.052;6.954;2023-05-20T07:11:25;4.30;;;2.90;;
817;SDS011;391;51.052;6.954;2023-05-20T07:13:30;3.07;;;2.63;;
817;SDS011;391;51.052;6.954;2023-05-20T07:15:33;4.70;;;2.70;;
817;SDS011;391;51.052;6.954;2023-05-20T07:17:38;4.70;;;4.23;;
817;SDS011;391;51.052;6.954;2023-05-20T07:19:42;5.07;;;4.57;;
817;SDS011;391;51.052;6.954;2023-05-20T07:21:45;4.10;;;3.30;;
817;SDS011;391;51.052;6.954;2023-05-20T07:24:15;3.13;;;2.70;;
817;SDS011;391;51.052;6.954;2023-05-20T07:26:19;3.67;;;3.37;;
817;SDS011;391;51.052;6.954;2023-05-20T07:28:23;2.97;;;2.70;;
817;SDS011;391;51.052;6.954;2023-05-20T07:30:28;3.40;;;3.10;;
817;SDS011;391;51.052;6.954;2023-05-20T07:32:47;2.67;;;2.40;;
817;SDS011;391;51.052;6.954;2023-05-20T07:34:50;3.70;;;2.40;;
817;SDS011;391;51.052;6.954;2023-05-20T07:36:54;3.00;;;2.80;;
817;SDS011;391;51.052;6.954;2023-05-20T07:38:58;4.97;;;2.93;;
817;SDS011;391;51.052;6.954;2023-05-20T07:41:08;4.30;;;3.67;;
817;SDS011;391;51.052;6.954;2023-05-20T07:43:12;3.17;;;2.87;;
817;SDS011;391;51.052;6.954;2023-05-20T07:45:16;3.20;;;2.90;;
817;SDS011;391;51.052;6.954;2023-05-20T07:47:21;3.50;;;2.80;;
817;SDS011;391;51.052;6.954;2023-05-20T07:49:24;4.87;;;3.33;;
817;SDS011;391;51.052;6.954;2023-05-20T07:51:28;4.10;;;3.03;;
817;SDS011;391;51.052;6.954;2023-05-20T07:53:32;4.30;;;4.00;;
817;SDS011;391;51.052;6.954;2023-05-20T07:55:36;3.90;;;3.50;;
817;SDS011;391;51.052;6.954;2023-05-20T07:57:41;3.07;;;2.70;;
817;SDS011;391;51.052;6.954;2023-05-20T07:59:47;2.80;;;2.60;;
817;SDS011;391;51.052;6.954;2023-05-20T08:01:51;4.67;;;3.33;;
817;SDS011;391;51.052;6.954;2023-05-20T08:03:57;3.60;;;3.20;;
817;SDS011;391;51.052;6.954;2023-05-20T08:06:04;3.27;;;2.97;;
817;SDS011;391;51.052;6.954;2023-05-20T08:08:10;4.17;;;3.30;;
817;SDS011;391;51.052;6.954;2023-05-20T08:10:23;3.97;;;3.27;;
817;SDS011;391;51.052;6.954;2023-05-20T08:12:27;3.90;;;3.47;;
817;SDS011;391;51.052;6.954;2023-05-20T08:14:36;3.40;;;3.10;;
817;SDS011;391;51.052;6.954;2023-05-20T08:16:41;6.20;;;4.00;;
817;SDS011;391;51.052;6.954;2023-05-20T08:18:44;3.20;;;2.77;;
817;SDS011;391;51.052;6.954;2023-05-20T08:20:49;3.10;;;2.80;;
817;SDS011;391;51.052;6.954;2023-05-20T08:22:53;3.73;;;3.20;;
817;SDS011;391;51.052;6.954;2023-05-20T08:24:58;3.87;;;2.70;;
817;SDS011;391;51.052;6.954;2023-05-20T08:27:01;4.80;;;3.70;;
817;SDS011;391;51.052;6.954;2023-05-20T08:29:06;4.40;;;4.00;;
817;SDS011;391;51.052;6.954;2023-05-20T08:31:10;3.90;;;3.50;;
817;SDS011;391;51.052;6.954;2023-05-20T08:33:14;3.40;;;3.10;;
817;SDS011;391;51.052;6.954;2023-05-20T08:35:20;4.10;;;3.70;;
817;SDS011;391;51.052;6.954;2023-05-20T08:37:27;4.23;;;3.00;;
817;SDS011;391;51.052;6.954;2023-05-20T08:39:30;3.63;;;3.30;;
817;SDS011;391;51.052;6.954;2023-05-20T08:41:34;3.73;;;3.10;;
817;SDS011;391;51.052;6.954;2023-05-20T08:43:37;3.40;;;3.10;;
817;SDS011;391;51.052;6.954;2023-05-20T08:45:41;3.83;;;3.53;;
817;SDS011;391;51.052;6.954;2023-05-20T08:47:47;3.43;;;3.00;;
817;SDS011;391;51.052;6.954;2023-05-20T08:49:51;3.03;;;2.83;;
817;SDS011;391;51.052;6.954;2023-05-20T08:51:54;3.53;;;3.20;;
817;SDS011;391;51.052;6.954;2023-05-20T08:53:59;3.10;;;2.80;;
817;SDS011;391;51.052;6.954;2023-05-20T08:56:03;3.03;;;2.70;;
817;SDS011;391;51.052;6.954;2023-05-20T08:58:07;3.13;;;2.90;;
817;SDS011;391;51.052;6.954;2023-05-20T09:00:12;6.30;;;5.17;;
817;SDS011;391;51.052;6.954;2023-05-20T09:02:17;5.20;;;4.70;;
817;SDS011;391;51.052;6.954;2023-05-20T09:04:21;4.77;;;4.30;;
817;SDS011;391;51.052;6.954;2023-05-20T09:06:24;3.80;;;3.50;;
817;SDS011;391;51.052;6.954;2023-05-20T09:08:28;3.00;;;2.70;;
817;SDS011;391;51.052;6.954;2023-05-20T09:10:34;3.30;;;3.00;;
817;SDS011;391;51.052;6.954;2023-05-20T09:12:39;3.93;;;2.77;;
817;SDS011;391;51.052;6.954;2023-05-20T09:14:42;3.10;;;2.80;;
817;SDS011;391;51.052;6.954;2023-05-20T09:16:46;2.70;;;2.50;;
817;SDS011;391;51.052;6.954;2023-05-20T09:18:53;2.80;;;2.50;;
817;SDS011;391;51.052;6.954;2023-05-20T09:21:03;4.03;;;3.60;;
817;SDS011;391;51.052;6.954;2023-05-20T09:23:08;3.60;;;3.30;;
817;SDS011;391;51.052;6.954;2023-05-20T09:25:12;3.30;;;3.10;;
817;SDS011;391;51.052;6.954;2023-05-20T09:27:18;4.43;;;4.03;;
817;SDS011;391;51.052;6.954;2023-05-20T09:29:22;5.53;;;3.13;;
817;SDS011;391;51.052;6.954;2023-05-20T09:31:25;3.50;;;3.20;;
817;SDS011;391;51.052;6.954;2023-05-20T09:33:30;4.20;;;3.80;;
817;SDS011;391;51.052;6.954;2023-05-20T09:35:34;3.33;;;3.03;;
817;SDS011;391;51.052;6.954;2023-05-20T09:37:39;3.43;;;3.13;;
817;SDS011;391;51.052;6.954;2023-05-20T09:39:47;4.23;;;3.20;;
817;SDS011;391;51.052;6.954;2023-05-20T09:42:00;5.80;;;3.70;;
817;SDS011;391;51.052;6.954;2023-05-20T09:44:09;4.20;;;3.80;;
817;SDS011;391;51.052;6.954;2023-05-20T09:46:14;3.73;;;3.43;;
817;SDS011;391;51.052;6.954;2023-05-20T09:48:18;4.47;;;4.07;;
817;SDS011;391;51.052;6.954;2023-05-20T09:50:22;4.57;;;4.20;;
817;SDS011;391;51.052;6.954;2023-05-20T09:52:27;4.33;;;3.93;;
817;SDS011;391;51.052;6.954;2023-05-20T09:54:30;4.03;;;3.30;;
817;SDS011;391;51.052;6.954;2023-05-20T09:56:34;3.63;;;3.33;;
817;SDS011;391;51.052;6.954;2023-05-20T09:58:39;3.50;;;3.20;;
817;SDS011;391;51.052;6.954;2023-05-20T10:00:45;4.37;;;3.97;;
817;SDS011;391;51.052;6.954;2023-05-20T10:02:50;4.90;;;3.37;;
817;SDS011;391;51.052;6.954;2023-05-20T10:04:54;4.70;;;4.03;;
817;SDS011;391;51.052;6.954;2023-05-20T10:09:47;3.87;;;3.53;;
817;SDS011;391;51.052;6.954;2023-05-20T10:12:00;6.67;;;4.30;;
817;SDS011;391;51.052;6.954;2023-05-20T10:16:50;3.80;;;3.40;;
817;SDS011;391;51.052;6.954;2023-05-20T10:19:04;3.80;;;3.50;;
817;SDS011;391;51.052;6.954;2023-05-20T10:21:20;3.60;;;3.30;;
817;SDS011;391;51.052;6.954;2023-05-20T10:23:26;3.97;;;3.57;;
817;SDS011;391;51.052;6.954;2023-05-20T10:25:30;4.10;;;3.70;;
817;SDS011;391;51.052;6.954;2023-05-20T10:27:41;4.13;;;3.73;;
817;SDS011;391;51.052;6.954;2023-05-20T10:29:48;4.10;;;3.70;;
817;SDS011;391;51.052;6.954;2023-05-20T10:31:54;4.73;;;4.20;;
817;SDS011;391;51.052;6.954;2023-05-20T10:33:58;4.10;;;3.30;;
817;SDS011;391;51.052;6.954;2023-05-20T10:36:01;3.23;;;2.93;;
817;SDS011;391;51.052;6.954;2023-05-20T10:38:08;4.20;;;3.80;;
817;SDS011;391;51.052;6.954;2023-05-20T10:40:13;3.87;;;3.40;;
817;SDS011;391;51.052;6.954;2023-05-20T10:42:26;6.30;;;3.77;;
817;SDS011;391;51.052;6.954;2023-05-20T10:44:39;5.37;;;3.97;;
817;SDS011;391;51.052;6.954;2023-05-20T10:46:42;3.30;;;3.00;;
817;SDS011;391;51.052;6.954;2023-05-20T10:49:17;4.67;;;3.47;;
817;SDS011;391;51.052;6.954;2023-05-20T10:51:28;4.60;;;3.73;;
817;SDS011;391;51.052;6.954;2023-05-20T10:53:37;4.93;;;3.70;;
817;SDS011;391;51.052;6.954;2023-05-20T10:55:45;5.17;;;4.07;;
817;SDS011;391;51.052;6.954;2023-05-20T10:57:52;4.90;;;3.73;;
817;SDS011;391;51.052;6.954;2023-05-20T10:59:56;4.47;;;4.07;;
817;SDS011;391;51.052;6.954;2023-05-20T11:02:02;4.47;;;4.07;;
817;SDS011;391;51.052;6.954;2023-05-20T11:04:05;5.30;;;4.90;;
817;SDS011;391;51.052;6.954;2023-05-20T11:06:12;5.27;;;4.77;;
817;SDS011;391;51.052;6.954;2023-05-20T11:08:19;4.27;;;3.90;;
817;SDS011;391;51.052;6.954;2023-05-20T11:10:30;5.20;;;4.70;;
817;SDS011;391;51.052;6.954;2023-05-20T11:12:35;5.03;;;4.50;;
817;SDS011;391;51.052;6.954;2023-05-20T11:14:39;4.53;;;4.13;;
817;SDS011;391;51.052;6.954;2023-05-20T11:16:42;3.43;;;3.10;;
817;SDS011;391;51.052;6.954;2023-05-20T11:18:47;4.90;;;4.50;;
817;SDS011;391;51.052;6.954;2023-05-20T11:20:51;4.20;;;3.80;;
817;SDS011;391;51.052;6.954;2023-05-20T11:22:56;4.77;;;4.27;;
817;SDS011;391;51.052;6.954;2023-05-20T11:25:03;4.50;;;4.10;;
817;SDS011;391;51.052;6.954;2023-05-20T11:27:08;4.90;;;4.40;;
817;SDS011;391;51.052;6.954;2023-05-20T11:29:11;4.90;;;4.27;;
817;SDS011;391;51.052;6.954;2023-05-20T11:31:15;4.47;;;4.17;;
817;SDS011;391;51.052;6.954;2023-05-20T11:33:18;4.93;;;4.43;;
817;SDS011;391;51.052;6.954;2023-05-20T11:35:22;5.37;;;4.93;;
817;SDS011;391;51.052;6.954;2023-05-20T11:37:26;5.00;;;4.60;;
817;SDS011;391;51.052;6.954;2023-05-20T11:39:32;4.97;;;4.50;;
817;SDS011;391;51.052;6.954;2023-05-20T11:41:35;4.77;;;4.23;;
817;SDS011;391;51.052;6.954;2023-05-20T11:43:39;5.60;;;5.10;;
817;SDS011;391;51.052;6.954;2023-05-20T11:45:44;7.30;;;4.93;;
817;SDS011;391;51.052;6.954;2023-05-20T11:47:57;7.03;;;4.40;;
817;SDS011;391;51.052;6.954;2023-05-20T11:50:01;5.10;;;4.60;;
817;SDS011;391;51.052;6.954;2023-05-20T11:52:08;4.93;;;4.30;;
817;SDS011;391;51.052;6.954;2023-05-20T11:54:12;7.10;;;5.27;;
817;SDS011;391;51.052;6.954;2023-05-20T11:56:17;4.60;;;4.20;;
817;SDS011;391;51.052;6.954;2023-05-20T11:58:23;7.50;;;5.07;;
817;SDS011;391;51.052;6.954;2023-05-20T12:00:28;5.87;;;5.37;;
817;SDS011;391;51.052;6.954;2023-05-20T12:02:44;6.67;;;4.77;;
817;SDS011;391;51.052;6.954;2023-05-20T12:04:47;5.33;;;4.70;;
817;SDS011;391;51.052;6.954;2023-05-20T12:06:51;6.13;;;5.63;;
817;SDS011;391;51.052;6.954;2023-05-20T12:08:54;6.07;;;5.37;;
817;SDS011;391;51.052;6.954;2023-05-20T12:10:58;6.07;;;5.07;;
817;SDS011;391;51.052;6.954;2023-05-20T12:13:03;5.73;;;5.30;;
817;SDS011;391;51.052;6.954;2023-05-20T12:15:09;5.20;;;4.80;;
817;SDS011;391;51.052;6.954;2023-05-20T12:17:13;5.77;;;4.97;;
817;SDS011;391;51.052;6.954;2023-05-20T12:19:16;5.80;;;5.30;;
817;SDS011;391;51.052;6.954;2023-05-20T12:21:20;5.00;;;4.60;;
817;SDS011;391;51.052;6.954;2023-05-20T12:23:23;5.60;;;5.10;;
817;SDS011;391;51.052;6.954;2023-05-20T12:25:27;5.60;;;5.00;;
817;SDS011;391;51.052;6.954;2023-05-20T12:27:31;6.07;;;5.57;;
817;SDS011;391;51.052;6.954;2023-05-20T12:29:36;6.70;;;6.00;;
817;SDS011;391;51.052;6.954;2023-05-20T12:31:39;6.20;;;5.47;;
817;SDS011;391;51.052;6.954;2023-05-20T12:33:43;5.00;;;4.60;;
817;SDS011;391;51.052;6.954;2023-05-20T12:35:46;5.17;;;4.77;;
817;SDS011;391;51.052;6.954;2023-05-20T12:37:50;5.97;;;5.00;;
817;SDS011;391;51.052;6.954;2023-05-20T12:39:53;5.80;;;4.60;;
817;SDS011;391;51.052;6.954;2023-05-20T12:41:57;4.93;;;4.53;;
817;SDS011;391;51.052;6.954;2023-05-20T12:44:00;5.10;;;4.67;;
817;SDS011;391;51.052;6.954;2023-05-20T12:46:05;5.83;;;4.87;;
817;SDS011;391;51.052;6.954;2023-05-20T12:48:09;5.00;;;4.50;;
817;SDS011;391;51.052;6.954;2023-05-20T12:50:12;5.43;;;5.03;;
817;SDS011;391;51.052;6.954;2023-05-20T12:52:16;6.97;;;6.37;;
817;SDS011;391;51.052;6.954;2023-05-20T12:54:23;5.43;;;4.70;;
817;SDS011;391;51.052;6.954;2023-05-20T12:56:29;4.87;;;4.53;;
817;SDS011;391;51.052;6.954;2023-05-20T12:58:32;4.70;;;4.40;;
817;SDS011;391;51.052;6.954;2023-05-20T13:00:35;5.00;;;4.60;;
817;SDS011;391;51.052;6.954;2023-05-20T13:02:40;5.07;;;4.67;;
817;SDS011;391;51.052;6.954;2023-05-20T13:04:45;4.03;;;3.70;;
817;SDS011;391;51.052;6.954;2023-05-20T13:06:48;5.83;;;3.77;;
817;SDS011;391;51.052;6.954;2023-05-20T13:08:51;4.40;;;4.03;;
817;SDS011;391;51.052;6.954;2023-05-20T13:10:55;4.07;;;3.77;;
817;SDS011;391;51.052;6.954;2023-05-20T13:12:58;4.60;;;4.20;;
817;SDS011;391;51.052;6.954;2023-05-20T13:15:02;5.73;;;5.07;;
817;SDS011;391;51.052;6.954;2023-05-20T13:17:06;5.10;;;4.60;;
817;SDS011;391;51.052;6.954;2023-05-20T13:19:11;4.87;;;4.40;;
817;SDS011;391;51.052;6.954;2023-05-20T13:21:14;4.40;;;4.07;;
817;SDS011;391;51.052;6.954;2023-05-20T13:23:18;4.03;;;3.73;;
817;SDS011;391;51.052;6.954;2023-05-20T13:25:22;4.27;;;3.97;;
817;SDS011;391;51.052;6.954;2023-05-20T13:27:25;4.63;;;4.23;;